createdAt,value
2023-05-21T00:02:19.861Z,3.80
2023-05-21T00:04:46.522Z,4.03
2023-05-21T00:07:13.401Z,3.67
2023-05-21T00:09:39.904Z,4.23
2023-05-21T00:12:09.721Z,3.50
2023-05-21T00:14:36.542Z,3.67
2023-05-21T00:17:03.000Z,3.67
2023-05-21T00:19:29.634Z,3.80
2023-05-21T00:21:57.581Z,3.93
2023-05-21T00:24:24.027Z,4.17
2023-05-21T00:26:50.495Z,3.90
2023-05-21T00:29:16.976Z,4.27
2023-05-21T00:31:43.443Z,4.17
2023-05-21T00:34:09.889Z,3.77
2023-05-21T00:36:36.316Z,3.63
2023-05-21T00:39:04.265Z,4.00
2023-05-21T00:41:30.694Z,3.30
2023-05-21T00:43:57.230Z,3.57
2023-05-21T00:46:24.013Z,3.40
2023-05-21T00:48:50.970Z,4.03
2023-05-21T00:51:18.471Z,3.60
2023-05-21T00:53:46.631Z,3.67
2023-05-21T00:56:13.286Z,3.70
2023-05-21T00:58:40.607Z,3.60
2023-05-21T01:01:07.254Z,3.90
2023-05-21T01:03:38.524Z,3.73
2023-05-21T01:06:06.106Z,3.50
2023-05-21T01:08:34.519Z,3.90
2023-05-21T01:11:02.584Z,4.30
2023-05-21T01:13:29.593Z,3.90
2023-05-21T01:15:58.032Z,4.07
2023-05-21T01:18:24.544Z,3.73
2023-05-21T01:20:52.397Z,4.27
2023-05-21T01:23:19.845Z,3.43
2023-05-21T01:25:47.069Z,4.20
2023-05-21T01:28:13.933Z,4.60
2023-05-21T01:30:41.367Z,3.57
2023-05-21T01:33:15.597Z,3.50
2023-05-21T01:36:10.154Z,3.93
2023-05-21T01:38:43.081Z,4.60
2023-05-21T01:41:13.792Z,4.37
2023-05-21T01:43:42.535Z,4.00
2023-05-21T01:46:10.816Z,3.93
2023-05-21T01:48:37.977Z,3.63
2023-05-21T01:51:06.071Z,4.30
2023-05-21T01:53:32.552Z,3.63
2023-05-21T01:55:59.343Z,4.10
2023-05-21T01:58:26.021Z,4.23
2023-05-21T02:00:52.445Z,4.10
2023-05-21T02:03:20.123Z,4.30
2023-05-21T02:05:47.213Z,3.77
2023-05-21T02:08:15.029Z,3.67
2023-05-21T02:10:41.471Z,4.13
2023-05-21T02:13:08.019Z,4.20
2023-05-21T02:15:34.798Z,3.83
2023-05-21T02:18:01.669Z,4.10
2023-05-21T02:20:28.156Z,4.30
2023-05-21T02:22:54.598Z,3.63
2023-05-21T02:25:21.051Z,3.80
2023-05-21T02:27:47.615Z,3.90
2023-05-21T02:30:15.531Z,3.70
2023-05-21T02:32:43.164Z,3.90
2023-05-21T02:35:13.152Z,3.97
2023-05-21T02:37:40.492Z,3.37
2023-05-21T02:40:08.012Z,4.17
2023-05-21T02:42:36.496Z,4.13
2023-05-21T02:45:02.985Z,4.20
2023-05-21T02:47:29.411Z,3.67
2023-05-21T02:50:01.480Z,3.93
2023-05-21T02:52:28.090Z,5.20
2023-05-21T02:54:54.561Z,4.87
2023-05-21T02:57:21.009Z,4.40
2023-05-21T02:59:47.441Z,4.23
2023-05-21T03:02:13.937Z,3.67
2023-05-21T03:04:46.337Z,4.20
2023-05-21T03:07:14.325Z,4.53
2023-05-21T03:09:44.349Z,3.93
2023-05-21T03:12:11.113Z,3.30
2023-05-21T03:14:37.776Z,4.00
2023-05-21T03:17:07.197Z,3.93
2023-05-21T03:19:37.301Z,4.20
2023-05-21T03:22:04.150Z,4.63
2023-05-21T03:24:30.806Z,4.77
2023-05-21T03:26:57.551Z,4.20
2023-05-21T03:29:23.992Z,4.77
2023-05-21T03:31:52.560Z,4.17
2023-05-21T03:34:20.060Z,3.87
2023-05-21T03:36:47.253Z,4.60
2023-05-21T03:39:13.826Z,4.40
2023-05-21T03:41:40.677Z,4.43
2023-05-21T03:44:07.134Z,4.17
2023-05-21T03:46:33.803Z,4.50
2023-05-21T03:49:00.582Z,4.40
2023-05-21T03:51:27.525Z,4.60
2023-05-21T03:53:53.995Z,4.10
2023-05-21T03:56:21.545Z,3.97
2023-05-21T03:58:48.085Z,4.13
2023-05-21T04:01:14.606Z,4.20
2023-05-21T04:03:41.305Z,4.30
2023-05-21T04:06:10.042Z,3.97
2023-05-21T04:08:37.980Z,4.27
2023-05-21T04:11:04.472Z,3.60
2023-05-21T04:13:30.900Z,4.27
2023-05-21T04:15:57.366Z,4.27
2023-05-21T04:18:25.922Z,4.00
2023-05-21T04:20:52.869Z,4.53
2023-05-21T04:23:19.367Z,3.60
2023-05-21T04:25:50.511Z,3.97
2023-05-21T04:28:20.091Z,3.83
2023-05-21T04:30:47.325Z,4.27
2023-05-21T04:33:17.944Z,4.20
2023-05-21T04:35:47.217Z,4.03
2023-05-21T04:38:14.165Z,3.90
2023-05-21T04:40:40.704Z,4.53
2023-05-21T04:43:08.062Z,4.50
2023-05-21T04:45:34.590Z,4.17
2023-05-21T04:48:01.207Z,4.57
2023-05-21T04:50:30.845Z,4.10
2023-05-21T04:52:58.686Z,4.03
2023-05-21T04:55:25.846Z,4.00
2023-05-21T04:57:52.770Z,3.90
2023-05-21T05:00:19.929Z,3.80
2023-05-21T05:02:46.729Z,3.87
2023-05-21T05:05:13.228Z,4.23
2023-05-21T05:07:39.636Z,4.20
2023-05-21T05:10:06.548Z,4.30
2023-05-21T05:12:32.962Z,3.83
2023-05-21T05:14:59.410Z,4.53
2023-05-21T05:17:26.035Z,4.40
2023-05-21T05:19:53.154Z,3.70
2023-05-21T05:22:19.611Z,4.23
2023-05-21T05:24:46.094Z,3.90
2023-05-21T05:27:12.547Z,4.20
2023-05-21T05:29:38.970Z,4.20
2023-05-21T05:32:05.812Z,4.03
2023-05-21T05:34:32.377Z,4.20
2023-05-21T05:36:58.867Z,4.50
2023-05-21T05:39:25.540Z,4.13
2023-05-21T05:41:52.001Z,4.53
2023-05-21T05:44:18.519Z,4.13
2023-05-21T05:46:45.145Z,4.37
2023-05-21T05:49:11.691Z,4.30
2023-05-21T05:51:38.123Z,4.27
2023-05-21T05:54:04.646Z,4.17
2023-05-21T05:56:31.073Z,3.90
2023-05-21T05:58:59.176Z,4.23
2023-05-21T06:01:26.216Z,4.60
2023-05-21T06:03:53.324Z,3.70
2023-05-21T06:06:19.945Z,5.03
2023-05-21T06:08:46.512Z,5.17
2023-05-21T06:11:13.073Z,4.87
2023-05-21T06:13:39.634Z,4.67
2023-05-21T06:16:06.408Z,4.43
2023-05-21T06:18:32.884Z,4.63
2023-05-21T06:20:59.295Z,4.80
2023-05-21T06:23:25.762Z,4.67
2023-05-21T06:25:52.193Z,4.70
2023-05-21T06:28:18.676Z,5.23
2023-05-21T06:30:45.210Z,5.30
2023-05-21T06:33:12.789Z,4.87
2023-05-21T06:35:40.190Z,4.57
2023-05-21T06:38:06.625Z,5.20
2023-05-21T06:40:34.158Z,4.73
2023-05-21T06:43:01.124Z,4.80
2023-05-21T06:45:27.540Z,4.77
2023-05-21T06:47:53.976Z,5.37
2023-05-21T06:50:20.506Z,5.70
2023-05-21T06:52:46.949Z,5.70
2023-05-21T06:55:13.378Z,5.40
2023-05-21T06:57:39.817Z,5.37
2023-05-21T07:00:08.398Z,5.40
2023-05-21T07:02:34.978Z,6.07
2023-05-21T07:05:01.493Z,6.43
2023-05-21T07:07:28.152Z,5.87
2023-05-21T07:09:54.625Z,6.03
2023-05-21T07:12:21.019Z,6.20
2023-05-21T07:14:47.527Z,7.30
2023-05-21T07:17:13.999Z,6.93
2023-05-21T07:19:40.500Z,7.20
2023-05-21T07:22:07.243Z,6.77
2023-05-21T07:24:33.697Z,6.53
2023-05-21T07:27:00.289Z,8.03
2023-05-21T07:29:27.329Z,7.80
2023-05-21T07:31:53.724Z,8.10
2023-05-21T07:34:20.262Z,7.67
2023-05-21T07:36:46.714Z,8.33
2023-05-21T07:39:13.188Z,8.20
2023-05-21T07:41:39.664Z,7.93
2023-05-21T07:44:06.198Z,7.60
2023-05-21T07:46:32.651Z,8.10
2023-05-21T07:48:59.128Z,8.50
2023-05-21T07:51:26.260Z,8.97
2023-05-21T07:53:55.010Z,8.50
2023-05-21T07:56:21.732Z,8.43
2023-05-21T07:58:48.409Z,9.20
2023-05-21T08:01:14.889Z,9.03
2023-05-21T08:03:41.515Z,8.70
2023-05-21T08:06:08.065Z,9.70
2023-05-21T08:08:34.507Z,9.17
2023-05-21T08:11:01.840Z,8.70
2023-05-21T08:13:28.297Z,9.53
2023-05-21T08:15:54.909Z,9.70
2023-05-21T08:18:23.719Z,8.93
2023-05-21T08:20:50.469Z,9.57
2023-05-21T08:23:16.933Z,8.47
2023-05-21T08:25:43.364Z,9.30
2023-05-21T08:28:09.773Z,8.97
2023-05-21T08:30:36.202Z,9.80
2023-05-21T08:33:02.717Z,10.07
2023-05-21T08:35:29.236Z,8.87
2023-05-21T08:37:55.649Z,9.60
2023-05-21T08:40:22.171Z,9.57
2023-05-21T08:42:49.718Z,9.73
2023-05-21T08:45:23.633Z,9.27
2023-05-21T08:47:57.418Z,10.20
2023-05-21T08:50:26.817Z,10.13
2023-05-21T08:52:55.217Z,10.27
2023-05-21T08:55:23.437Z,10.03
2023-05-21T08:57:50.606Z,10.60
2023-05-21T09:00:17.303Z,10.20
2023-05-21T09:02:44.611Z,10.27
2023-05-21T09:05:12.220Z,9.87
2023-05-21T09:07:44.568Z,9.90
2023-05-21T09:10:13.115Z,10.27
2023-05-21T09:12:40.106Z,10.00
2023-05-21T09:15:07.519Z,10.60
2023-05-21T09:17:34.022Z,10.23
2023-05-21T09:20:14.556Z,9.67
2023-05-21T09:22:42.873Z,10.20
2023-05-21T09:25:11.226Z,10.00
2023-05-21T09:27:38.570Z,10.27
2023-05-21T09:30:09.607Z,10.33
2023-05-21T09:32:36.142Z,10.77
2023-05-21T09:35:13.341Z,10.80
2023-05-21T09:37:47.831Z,11.00
2023-05-21T09:40:15.184Z,10.63
2023-05-21T09:42:54.655Z,10.40
2023-05-21T09:45:22.347Z,10.90
2023-05-21T09:47:49.876Z,10.60
2023-05-21T09:50:22.985Z,11.20
2023-05-21T09:52:52.700Z,10.97
2023-05-21T09:55:22.959Z,11.10
2023-05-21T09:57:50.700Z,10.83
2023-05-21T10:00:24.600Z,11.17
2023-05-21T10:02:55.823Z,10.53
2023-05-21T10:05:26.361Z,12.03
2023-05-21T10:07:54.377Z,12.00
2023-05-21T10:10:22.615Z,11.00
2023-05-21T10:12:55.308Z,11.00
2023-05-21T10:15:24.173Z,11.43
2023-05-21T10:17:52.277Z,11.43
2023-05-21T10:20:18.916Z,11.07
2023-05-21T10:22:45.669Z,11.43
2023-05-21T10:25:13.171Z,12.27
2023-05-21T10:27:39.968Z,12.13
2023-05-21T10:30:06.890Z,11.80
2023-05-21T10:32:33.977Z,11.77
2023-05-21T10:35:02.258Z,12.17
2023-05-21T10:37:29.133Z,13.23
2023-05-21T10:39:56.516Z,12.53
2023-05-21T10:43:00.360Z,11.97
2023-05-21T10:45:54.095Z,12.10
2023-05-21T10:48:44.760Z,13.50
2023-05-21T10:51:24.247Z,12.83
2023-05-21T10:54:28.539Z,12.30
2023-05-21T10:57:13.438Z,11.67
2023-05-21T10:59:39.800Z,13.20
2023-05-21T11:02:07.029Z,12.27
2023-05-21T11:04:34.964Z,12.43
2023-05-21T11:07:02.044Z,12.23
2023-05-21T11:09:28.509Z,11.87
2023-05-21T11:11:59.030Z,11.37
2023-05-21T11:14:26.734Z,12.50
2023-05-21T11:16:53.243Z,12.33
2023-05-21T11:19:19.754Z,11.83
2023-05-21T11:21:54.011Z,11.83
2023-05-21T11:24:20.568Z,11.97
2023-05-21T11:27:01.536Z,11.53
2023-05-21T11:29:40.251Z,12.53
2023-05-21T11:32:10.999Z,12.43
2023-05-21T11:34:46.019Z,12.67
2023-05-21T11:37:18.772Z,11.67
2023-05-21T11:39:45.580Z,11.73
2023-05-21T11:42:12.196Z,10.63
2023-05-21T11:44:42.705Z,10.90
2023-05-21T11:47:10.752Z,10.67
2023-05-21T11:49:37.916Z,12.20
2023-05-21T11:52:08.651Z,11.20
2023-05-21T11:54:44.048Z,11.47
2023-05-21T11:57:10.552Z,12.10
2023-05-21T11:59:37.072Z,11.37
2023-05-21T12:02:04.001Z,11.20
2023-05-21T12:04:31.356Z,11.77
2023-05-21T12:06:58.548Z,11.07
2023-05-21T12:09:25.102Z,10.77
2023-05-21T12:11:51.741Z,11.80
2023-05-21T12:14:18.240Z,11.80
2023-05-21T12:16:44.850Z,10.90
2023-05-21T12:19:11.440Z,11.53
2023-05-21T12:21:38.049Z,11.40
2023-05-21T12:24:04.715Z,11.10
2023-05-21T12:26:33.173Z,10.90
2023-05-21T12:28:59.751Z,11.27
2023-05-21T12:31:27.566Z,11.10
2023-05-21T12:33:54.161Z,11.10
2023-05-21T12:36:29.292Z,11.83
2023-05-21T12:38:56.384Z,11.00
2023-05-21T12:41:23.102Z,10.60
2023-05-21T12:43:50.812Z,11.10
2023-05-21T12:46:18.825Z,11.00
2023-05-21T12:48:57.392Z,11.93
2023-05-21T12:51:23.824Z,10.63
2023-05-21T12:53:50.248Z,11.23
2023-05-21T12:56:16.666Z,10.43
2023-05-21T12:58:43.496Z,11.07
2023-05-21T13:01:11.158Z,11.17
2023-05-21T13:03:38.445Z,10.83
2023-05-21T13:06:08.946Z,11.43
2023-05-21T13:08:35.467Z,12.03
2023-05-21T13:11:05.388Z,11.53
2023-05-21T13:13:31.969Z,11.23
2023-05-21T13:16:00.575Z,11.10
2023-05-21T13:18:27.249Z,11.40
2023-05-21T13:20:53.794Z,10.97
2023-05-21T13:23:20.487Z,11.37
2023-05-21T13:25:46.906Z,11.23
2023-05-21T13:28:15.305Z,11.67
2023-05-21T13:30:41.801Z,10.27
2023-05-21T13:33:08.387Z,10.90
2023-05-21T13:35:35.269Z,11.23
2023-05-21T13:38:02.059Z,12.03
2023-05-21T13:40:28.781Z,10.70
2023-05-21T13:42:55.251Z,10.98
2023-05-21T13:45:21.718Z,10.40
2023-05-21T13:47:48.736Z,11.38
2023-05-21T13:50:15.531Z,10.73
2023-05-21T13:52:42.174Z,9.75
2023-05-21T13:55:09.412Z,10.70
2023-05-21T13:57:36.006Z,10.27
2023-05-21T14:00:03.595Z,11.10
2023-05-21T14:02:30.252Z,11.50
2023-05-21T14:04:57.278Z,10.80
2023-05-21T14:07:23.707Z,10.88
2023-05-21T14:09:50.403Z,10.60
2023-05-21T14:12:17.099Z,10.70
2023-05-21T14:14:43.674Z,10.55
2023-05-21T14:17:10.283Z,10.35
2023-05-21T14:19:36.741Z,11.40
2023-05-21T14:24:29.566Z,10.30
2023-05-21T14:26:55.989Z,10.27
2023-05-21T14:29:22.457Z,11.05
2023-05-21T14:31:49.015Z,10.43
2023-05-21T14:34:15.544Z,10.10
2023-05-21T14:36:42.021Z,10.30
2023-05-21T14:39:08.502Z,10.27
2023-05-21T14:41:38.692Z,9.77
2023-05-21T14:44:05.557Z,10.23
2023-05-21T14:46:32.543Z,10.35
2023-05-21T14:49:00.156Z,9.73
2023-05-21T14:51:26.641Z,10.90
2023-05-21T14:53:53.157Z,10.13
2023-05-21T14:56:22.226Z,10.45
2023-05-21T15:28:12.233Z,9.38
2023-05-21T15:30:38.967Z,9.02
2023-05-21T15:33:05.442Z,9.27
2023-05-21T15:35:32.050Z,9.43
2023-05-21T15:37:58.603Z,9.55
2023-05-21T15:40:26.863Z,9.80
2023-05-21T15:42:53.946Z,9.43
2023-05-21T15:45:20.641Z,9.05
2023-05-21T15:47:47.252Z,9.27
2023-05-21T15:50:13.845Z,8.73
2023-05-21T15:52:41.845Z,9.27
2023-05-21T15:55:08.782Z,9.55
2023-05-21T15:57:35.327Z,9.40
2023-05-21T16:00:01.926Z,8.48
2023-05-21T16:02:31.334Z,9.82
2023-05-21T16:04:57.862Z,10.27
2023-05-21T16:07:47.697Z,9.63
2023-05-21T16:10:19.831Z,10.05
2023-05-21T16:12:50.323Z,9.50
2023-05-21T16:15:16.877Z,9.43
2023-05-21T16:17:43.417Z,9.40
2023-05-21T16:20:10.409Z,8.90
2023-05-21T16:22:36.937Z,9.63
2023-05-21T16:27:50.830Z,9.80
2023-05-21T16:30:17.549Z,10.32
2023-05-21T16:32:53.083Z,9.95
2023-05-21T16:35:19.602Z,9.32
2023-05-21T16:37:46.270Z,9.63
2023-05-21T16:40:18.512Z,9.30
2023-05-21T16:42:45.054Z,10.23
2023-05-21T16:45:19.468Z,10.10
2023-05-21T16:47:52.555Z,10.35
2023-05-21T16:50:22.248Z,9.43
2023-05-21T16:52:48.747Z,10.40
2023-05-21T16:55:15.228Z,10.32
2023-05-21T16:57:41.697Z,10.15
2023-05-21T17:00:08.687Z,10.18
2023-05-21T17:02:43.150Z,10.35
2023-05-21T17:05:09.682Z,10.18
2023-05-21T17:07:36.148Z,9.88
2023-05-21T17:10:03.010Z,10.38
2023-05-21T17:12:29.541Z,10.02
2023-05-21T17:14:56.014Z,9.68
2023-05-21T17:17:22.573Z,10.20
2023-05-21T17:19:49.012Z,10.32
2023-05-21T17:22:19.251Z,10.32
2023-05-21T17:24:49.467Z,10.55
2023-05-21T17:27:16.472Z,10.10
2023-05-21T17:29:42.975Z,11.02
2023-05-21T17:32:10.343Z,10.25
2023-05-21T17:34:37.335Z,10.25
2023-05-21T17:37:03.888Z,10.32
2023-05-21T17:39:30.657Z,9.75
2023-05-21T17:41:57.425Z,10.05
2023-05-21T17:44:24.071Z,10.50
2023-05-21T17:46:51.165Z,10.85
2023-05-21T17:49:18.372Z,10.48
2023-05-21T17:51:44.952Z,10.18
2023-05-21T17:54:11.748Z,10.15
2023-05-21T17:56:41.088Z,11.25
2023-05-21T17:59:11.672Z,10.50
2023-05-21T18:01:39.654Z,10.75
2023-05-21T18:04:12.238Z,10.75
2023-05-21T18:06:39.641Z,10.37
2023-05-21T18:09:08.002Z,10.90
2023-05-21T18:11:34.713Z,10.93
2023-05-21T18:14:01.318Z,11.87
2023-05-21T18:16:30.405Z,10.97
2023-05-21T18:18:57.275Z,11.03
2023-05-21T18:21:23.861Z,11.17
2023-05-21T18:23:50.303Z,10.67
2023-05-21T18:26:16.747Z,9.97
2023-05-21T18:28:43.202Z,10.80
2023-05-21T18:31:09.633Z,11.63
2023-05-21T18:33:36.278Z,11.87
2023-05-21T18:36:02.934Z,10.63
2023-05-21T18:38:29.495Z,11.60
2023-05-21T18:40:56.097Z,11.27
2023-05-21T18:43:22.826Z,10.80
2023-05-21T18:45:49.291Z,11.20
2023-05-21T18:48:16.126Z,10.50
2023-05-21T18:50:42.608Z,10.90
2023-05-21T18:53:10.453Z,11.17
2023-05-21T18:55:36.880Z,11.37
2023-05-21T18:58:03.348Z,11.00
2023-05-21T19:00:29.898Z,11.17
2023-05-21T19:02:56.527Z,11.73
2023-05-21T19:05:23.235Z,10.97
2023-05-21T19:07:49.685Z,11.30
2023-05-21T19:10:16.195Z,10.87
2023-05-21T19:12:43.528Z,11.93
2023-05-21T19:15:10.618Z,11.07
2023-05-21T19:17:39.025Z,10.70
2023-05-21T19:20:10.018Z,10.27
2023-05-21T19:22:37.200Z,11.27
2023-05-21T19:25:04.299Z,10.73
2023-05-21T19:27:30.971Z,10.63
2023-05-21T19:29:57.446Z,10.87
2023-05-21T19:32:23.992Z,10.37
2023-05-21T19:34:51.573Z,10.37
2023-05-21T19:37:18.239Z,10.30
2023-05-21T19:39:49.440Z,10.17
2023-05-21T19:42:17.307Z,10.30
2023-05-21T19:44:44.084Z,10.37
2023-05-21T19:47:10.699Z,10.40
2023-05-21T19:49:37.206Z,10.77
2023-05-21T19:52:04.603Z,10.10
2023-05-21T19:54:31.183Z,9.87
2023-05-21T19:56:57.710Z,10.97
2023-05-21T19:59:24.196Z,10.20
2023-05-21T20:01:51.752Z,10.53
2023-05-21T20:04:18.393Z,10.53
2023-05-21T20:06:45.009Z,10.63
2023-05-21T20:09:13.272Z,10.00
2023-05-21T20:11:39.879Z,10.30
2023-05-21T20:14:06.407Z,10.17
2023-05-21T20:16:33.374Z,9.57
2023-05-21T20:19:01.658Z,10.50
2023-05-21T20:21:29.570Z,10.10
2023-05-21T20:23:56.074Z,10.53
2023-05-21T20:26:23.236Z,10.00
2023-05-21T20:28:49.766Z,10.93
2023-05-21T20:31:16.278Z,10.60
2023-05-21T20:33:43.054Z,9.93
2023-05-21T20:36:09.580Z,10.40
2023-05-21T20:38:37.997Z,9.97
2023-05-21T20:41:04.669Z,10.57
2023-05-21T20:43:31.310Z,10.20
2023-05-21T20:45:59.916Z,10.37
2023-05-21T20:48:29.468Z,10.53
2023-05-21T20:50:57.465Z,10.03
2023-05-21T20:53:24.753Z,10.37
2023-05-21T20:55:52.609Z,10.80
2023-05-21T20:58:19.091Z,10.63
2023-05-21T21:00:48.394Z,10.53
2023-05-21T21:03:17.703Z,10.50
2023-05-21T21:05:44.604Z,9.77
2023-05-21T21:08:11.080Z,10.70
2023-05-21T21:10:38.559Z,11.07
2023-05-21T21:13:07.123Z,10.73
2023-05-21T21:15:34.093Z,11.07
2023-05-21T21:18:00.750Z,10.60
2023-05-21T21:20:27.543Z,11.50
2023-05-21T21:22:54.061Z,11.03
2023-05-21T21:25:21.071Z,10.90
2023-05-21T21:27:47.485Z,10.53
2023-05-21T21:30:14.013Z,11.10
2023-05-21T21:32:41.143Z,11.87
2023-05-21T21:35:07.968Z,10.90
2023-05-21T21:37:34.577Z,10.27
2023-05-21T21:40:01.021Z,10.57
2023-05-21T21:42:27.517Z,11.13
2023-05-21T21:44:54.236Z,9.77
2023-05-21T21:47:20.729Z,11.00
2023-05-21T21:49:48.064Z,10.87
2023-05-21T21:52:14.939Z,10.63
2023-05-21T21:54:41.625Z,10.47
2023-05-21T21:57:08.193Z,10.70
2023-05-21T21:59:37.916Z,10.93
2023-05-21T22:02:04.453Z,11.07
2023-05-21T22:04:30.906Z,10.33
2023-05-21T22:06:57.397Z,9.97
2023-05-21T22:09:23.877Z,10.17
2023-05-21T22:11:50.810Z,10.80
2023-05-21T22:14:18.177Z,10.13
2023-05-21T22:16:45.244Z,10.50
2023-05-21T22:19:12.904Z,10.70
2023-05-21T22:21:39.438Z,10.13
2023-05-21T22:24:06.198Z,10.03
2023-05-21T22:26:32.958Z,9.67
2023-05-21T22:28:59.927Z,9.37
2023-05-21T22:31:26.833Z,9.47
2023-05-21T22:33:53.300Z,9.50
2023-05-21T22:36:19.733Z,9.37
2023-05-21T22:38:46.368Z,8.77
2023-05-21T22:41:12.989Z,9.20
2023-05-21T22:43:39.479Z,9.73
2023-05-21T22:46:06.030Z,8.83
2023-05-21T22:48:34.415Z,9.40
2023-05-21T22:51:01.664Z,8.77
2023-05-21T22:53:28.309Z,8.83
2023-05-21T22:55:54.746Z,8.30
2023-05-21T22:58:21.251Z,8.50
2023-05-21T23:00:48.066Z,8.83
2023-05-21T23:03:14.656Z,8.30
2023-05-21T23:05:41.345Z,8.37
2023-05-21T23:08:07.921Z,8.60
2023-05-21T23:10:35.418Z,8.40
2023-05-21T23:13:01.957Z,7.90
2023-05-21T23:15:29.768Z,7.80
2023-05-21T23:17:57.001Z,8.00
2023-05-21T23:20:24.876Z,7.80
2023-05-21T23:22:51.914Z,8.20
2023-05-21T23:25:18.408Z,8.27
2023-05-21T23:27:44.994Z,7.73
2023-05-21T23:30:12.042Z,8.57
2023-05-21T23:32:39.006Z,7.57
2023-05-21T23:35:05.952Z,8.50
2023-05-21T23:37:32.402Z,7.23
2023-05-21T23:39:58.856Z,7.60
2023-05-21T23:42:25.296Z,7.90
2023-05-21T23:44:51.974Z,7.73
2023-05-21T23:47:18.411Z,7.67
2023-05-21T23:49:44.860Z,8.60
2023-05-21T23:52:13.433Z,7.70
2023-05-21T23:54:39.885Z,7.73
2023-05-21T23:57:06.334Z,8.37
2023-05-21T23:59:32.812Z,8.30
